Time;durP1;ratioP1;P1;durP2;ratioP2;P2;SDS_P1;SDS_P2;PMS_P1;PMS_P2;Temp;Humidity;BMP_temperature;BMP_pressure;BME280_temperature;BME280_humidity;BME280_pressure;Samples;Min_cycle;Max_cycle;Signal;HPM_P1;HPM_P2
2022/01/24 00:02:19;;;;;;;32.58;18.50;;;;;;;-1.05;95.64;100064.63;5115687;28;20051;-92
2022/01/24 00:04:48;;;;;;;37.30;20.40;;;;;;;-1.10;95.52;100066.19;5114992;28;20054;-93
2022/01/24 00:07:17;;;;;;;44.27;22.80;;;;;;;-1.02;96.14;100080.41;5115787;28;20062;-93
2022/01/24 00:09:43;;;;;;;43.22;23.85;;;;;;;-1.00;97.00;100089.19;5115388;28;20126;-92
2022/01/24 00:27:00;;;;;;;44.67;25.35;;;;;;;-1.07;98.05;100077.63;5138141;27;20372;-95
2022/01/24 00:29:27;;;;;;;44.72;26.73;;;;;;;-1.11;97.55;100073.09;5135737;27;20079;-96
2022/01/24 00:31:57;;;;;;;50.28;28.70;;;;;;;-1.13;98.20;100056.50;5136787;27;20043;-94
2022/01/24 00:34:23;;;;;;;50.17;29.45;;;;;;;-1.17;98.34;100032.81;5135773;27;20040;-94
2022/01/24 00:36:51;;;;;;;53.30;30.45;;;;;;;-0.95;98.82;100055.47;5135297;27;20043;-93
2022/01/24 00:39:17;;;;;;;51.55;30.83;;;;;;;-0.88;98.34;100050.53;5136049;27;20048;-95
2022/01/24 00:57:25;;;;;;;55.55;28.90;;;;;;;-1.21;98.42;100047.47;5094289;27;20378;-94
2022/01/24 00:59:54;;;;;;;56.53;31.58;;;;;;;-1.18;98.54;100063.25;5094154;28;20051;-94
2022/01/24 01:02:20;;;;;;;58.97;31.02;;;;;;;-1.22;98.45;100063.94;5094640;28;20055;-94
2022/01/24 01:20:39;;;;;;;55.08;29.75;;;;;;;-1.16;99.10;100061.59;5135143;27;20367;-93
2022/01/24 01:23:06;;;;;;;43.80;24.88;;;;;;;-1.30;99.36;100041.84;5134813;27;20044;-93
2022/01/24 01:25:32;;;;;;;38.95;22.85;;;;;;;-1.27;99.69;100055.06;5135160;27;20122;-93
2022/01/24 01:27:58;;;;;;;42.35;23.10;;;;;;;-1.38;99.04;100046.78;5134909;27;20047;-93
2022/01/24 01:30:35;;;;;;;52.85;29.13;;;;;;;-1.34;99.14;100051.31;5135303;27;20044;-94
2022/01/24 01:33:17;;;;;;;55.33;30.30;;;;;;;-1.30;100.00;100062.72;5135533;27;20054;-94
2022/01/24 01:56:34;;;;;;;47.78;26.77;;;;;;;-1.73;100.00;100021.84;5148395;27;1414641;-96
2022/01/24 01:59:08;;;;;;;42.10;20.77;;;;;;;-1.71;100.00;100028.91;5177401;27;20054;-95
2022/01/24 02:01:35;;;;;;;31.83;18.08;;;;;;;-1.60;100.00;100047.63;5178669;27;20046;-95
2022/01/24 02:04:03;;;;;;;28.95;16.42;;;;;;;-1.55;100.00;100061.72;5176463;27;20052;-93
2022/01/24 02:06:29;;;;;;;32.58;20.35;;;;;;;-1.67;100.00;100038.63;5176928;27;20129;-92
2022/01/24 02:08:59;;;;;;;38.13;21.52;;;;;;;-1.69;99.97;100042.91;5177289;27;20081;-93
2022/01/24 02:11:25;;;;;;;38.58;21.73;;;;;;;-1.56;100.00;100054.75;5178653;27;20507;-94
2022/01/24 02:13:58;;;;;;;35.42;19.20;;;;;;;-1.75;100.00;100024.38;5177190;27;20101;-94
2022/01/24 02:20:07;;;;;;;35.97;20.60;;;;;;;-1.74;100.00;100046.13;5115497;27;20385;-95
2022/01/24 02:25:24;;;;;;;36.22;20.77;;;;;;;-1.54;100.00;100063.53;5135822;27;20339;-94
2022/01/24 02:27:56;;;;;;;37.40;20.10;;;;;;;-1.38;100.00;100032.84;5114561;28;20048;-94
2022/01/24 02:30:41;;;;;;;38.13;20.27;;;;;;;-1.41;100.00;100041.44;5115205;28;20425;-94
2022/01/24 02:33:11;;;;;;;41.50;24.45;;;;;;;-1.54;99.87;100034.84;5114989;28;20043;-95
2022/01/24 02:35:37;;;;;;;40.55;23.48;;;;;;;-1.48;99.93;100052.44;5115096;28;20044;-93
2022/01/24 02:38:08;;;;;;;44.55;23.45;;;;;;;-1.58;100.00;100061.59;5114847;28;20062;-95
2022/01/24 02:40:37;;;;;;;42.97;23.90;;;;;;;-1.77;100.00;100040.78;5115269;28;20043;-94
2022/01/24 02:48:58;;;;;;;36.40;19.73;;;;;;;-1.80;100.00;100038.94;5115814;27;20384;-94
2022/01/24 03:04:57;;;;;;;37.63;20.33;;;;;;;-1.77;100.00;100054.72;5118463;27;20388;-95
2022/01/24 03:07:25;;;;;;;43.65;23.33;;;;;;;-1.88;100.00;100041.22;5119308;28;20059;-94
2022/01/24 03:09:54;;;;;;;37.38;20.27;;;;;;;-1.77;100.00;100057.31;5119091;28;20044;-93
2022/01/24 03:15:33;;;;;;;40.25;20.38;;;;;;;-1.88;100.00;100051.66;5157094;27;20374;-93
2022/01/24 03:18:03;;;;;;;46.40;22.00;;;;;;;-2.08;100.00;100029.94;5156995;27;20050;-94
2022/01/24 03:20:29;;;;;;;40.47;21.13;;;;;;;-2.05;100.00;100042.19;5156481;27;20130;-95
2022/01/24 03:22:55;;;;;;;34.25;19.38;;;;;;;-2.04;100.00;100036.16;5157359;27;20480;-93
2022/01/24 03:25:21;;;;;;;37.63;20.95;;;;;;;-2.02;100.00;100047.53;5156321;27;20043;-95
2022/01/24 03:27:47;;;;;;;41.53;22.20;;;;;;;-2.13;100.00;100027.94;5157262;27;20043;-93
2022/01/24 03:30:13;;;;;;;37.45;20.00;;;;;;;-2.11;100.00;100035.00;5159233;27;20043;-93
2022/01/24 03:32:42;;;;;;;38.13;19.98;;;;;;;-2.08;100.00;100034.25;5159202;27;20034;-95
2022/01/24 03:35:09;;;;;;;38.65;18.20;;;;;;;-2.07;100.00;100036.03;5158705;27;20134;-94
2022/01/24 03:37:38;;;;;;;35.15;18.42;;;;;;;-2.00;100.00;100045.00;5158577;27;20043;-94
2022/01/24 03:40:05;;;;;;;39.95;18.50;;;;;;;-1.89;100.00;100048.97;5160164;27;20402;-94
2022/01/24 03:42:31;;;;;;;41.30;19.58;;;;;;;-1.90;100.00;100015.91;5160975;27;20043;-96
2022/01/24 03:45:01;;;;;;;40.58;18.83;;;;;;;-1.83;100.00;100028.38;5161242;27;20051;-95
2022/01/24 03:47:44;;;;;;;42.20;19.92;;;;;;;-1.89;100.00;100021.19;5159509;27;20043;-95
2022/01/24 03:50:17;;;;;;;39.25;21.92;;;;;;;-1.74;100.00;100044.41;5157892;27;20043;-96
2022/01/24 03:52:43;;;;;;;41.70;20.35;;;;;;;-1.69;100.00;100031.59;5157425;27;20128;-94
2022/01/24 03:55:09;;;;;;;44.13;20.98;;;;;;;-1.41;100.00;100064.94;5157295;27;20039;-95
2022/01/24 03:57:37;;;;;;;49.83;21.60;;;;;;;-1.62;100.00;100020.56;5157512;27;20045;-95
2022/01/24 04:00:05;;;;;;;44.53;21.70;;;;;;;-1.59;100.00;100025.91;5156773;27;20051;-92
2022/01/24 04:02:31;;;;;;;43.35;20.27;;;;;;;-1.71;99.93;100017.59;5157080;27;20095;-94
2022/01/24 04:04:59;;;;;;;45.67;21.95;;;;;;;-1.69;100.00;100018.53;5156778;27;20457;-95
2022/01/24 04:07:26;;;;;;;42.22;21.33;;;;;;;-1.71;100.00;100023.69;5155867;27;20039;-93
2022/01/24 04:10:03;;;;;;;41.05;19.48;;;;;;;-1.67;100.00;100014.25;5156650;27;20538;-94
2022/01/24 04:12:29;;;;;;;40.95;20.10;;;;;;;-1.67;100.00;100019.47;5157532;27;20065;-93
2022/01/24 04:24:10;;;;;;;40.58;18.60;;;;;;;-1.98;100.00;100010.34;5117300;27;20735;-93
2022/01/24 04:26:38;;;;;;;39.03;18.05;;;;;;;-2.00;100.00;100012.00;5116800;28;20044;-92
2022/01/24 04:29:04;;;;;;;35.67;18.40;;;;;;;-2.01;100.00;100012.84;5118334;28;20051;-94
2022/01/24 04:31:30;;;;;;;41.63;21.10;;;;;;;-2.05;100.00;100013.53;5118444;28;20040;-94
2022/01/24 04:34:00;;;;;;;37.30;18.90;;;;;;;-2.13;100.00;100009.69;5117178;28;20493;-93
2022/01/24 04:36:27;;;;;;;37.75;17.55;;;;;;;-2.16;100.00;100015.66;5119225;28;20047;-96
2022/01/24 04:38:55;;;;;;;37.05;17.35;;;;;;;-2.18;100.00;100003.41;5117325;28;20059;-95
2022/01/24 04:41:27;;;;;;;40.83;20.05;;;;;;;-2.17;100.00;100021.72;5117157;28;20044;-93
2022/01/24 04:44:02;;;;;;;46.85;23.08;;;;;;;-2.03;100.00;100016.22;5116367;28;20039;-94
2022/01/24 04:46:45;;;;;;;41.72;21.13;;;;;;;-2.08;100.00;100014.28;5116333;28;20044;-93
2022/01/24 04:55:00;;;;;;;50.03;23.88;;;;;;;-2.14;100.00;100018.34;5097757;27;20384;-93
2022/01/24 04:57:27;;;;;;;49.67;23.58;;;;;;;-2.21;100.00;100005.84;5096939;28;20044;-93
2022/01/24 04:59:56;;;;;;;44.25;22.83;;;;;;;-2.13;100.00;100004.47;5097389;28;20490;-94
2022/01/24 05:02:26;;;;;;;41.58;20.55;;;;;;;-1.93;100.00;100045.34;5095951;28;20131;-96
2022/01/24 05:04:53;;;;;;;55.83;27.73;;;;;;;-1.75;100.00;100039.13;5096065;28;20045;-95
2022/01/24 05:07:19;;;;;;;46.15;23.02;;;;;;;-1.93;100.00;100013.16;5097117;28;20048;-94
2022/01/24 05:21:25;;;;;;;45.60;21.75;;;;;;;-1.86;100.00;100044.78;5099155;27;20386;-93
2022/01/24 05:24:26;;;;;;;42.85;24.98;;;;;;;-2.19;100.00;100002.53;5158830;27;20845;-93
2022/01/24 05:26:52;;;;;;;48.92;26.00;;;;;;;-2.17;100.00;100015.59;5142018;27;20050;-94
2022/01/24 05:29:18;;;;;;;47.90;25.65;;;;;;;-2.26;100.00;100018.69;5139724;28;20054;-95
2022/01/24 05:31:44;;;;;;;50.17;28.05;;;;;;;-2.14;100.00;100034.00;5139772;28;20043;-94
2022/01/24 05:34:10;;;;;;;56.20;28.58;;;;;;;-2.13;100.00;100038.38;5141897;27;20043;-94
2022/01/24 05:36:37;;;;;;;61.08;30.63;;;;;;;-2.30;100.00;100003.75;5141297;28;20184;-95
2022/01/24 05:39:04;;;;;;;50.03;27.92;;;;;;;-2.27;100.00;100017.81;5141194;27;20392;-95
2022/01/24 05:41:31;;;;;;;55.30;29.05;;;;;;;-2.33;100.00;100014.03;5141865;27;20047;-95
2022/01/24 05:43:57;;;;;;;50.58;28.27;;;;;;;-2.27;100.00;100011.72;5142155;27;20082;-95
2022/01/24 05:46:26;;;;;;;59.85;29.13;;;;;;;-2.29;100.00;99998.59;5141920;27;20036;-94
2022/01/24 05:48:52;;;;;;;60.70;26.20;;;;;;;-2.25;100.00;99999.66;5140610;27;20122;-94
2022/01/24 05:51:20;;;;;;;51.47;27.10;;;;;;;-2.21;100.00;100005.84;5140589;27;20378;-94
2022/01/24 05:53:46;;;;;;;50.90;26.25;;;;;;;-2.09;100.00;100019.44;5140947;28;20062;-94
2022/01/24 05:56:12;;;;;;;58.97;28.08;;;;;;;-2.14;100.00;100020.97;5140106;27;20130;-94
2022/01/24 05:58:39;;;;;;;54.10;26.08;;;;;;;-2.12;100.00;100022.81;5139044;27;20063;-94
2022/01/24 06:01:05;;;;;;;48.25;25.60;;;;;;;-2.31;100.00;100007.19;5139551;28;20039;-94
2022/01/24 06:03:34;;;;;;;54.03;25.65;;;;;;;-2.36;100.00;100006.97;5140105;27;20067;-94
2022/01/24 06:06:00;;;;;;;51.33;25.48;;;;;;;-2.41;100.00;100005.88;5140295;27;20055;-92
2022/01/24 06:08:26;;;;;;;47.78;24.98;;;;;;;-2.36;100.00;100016.53;5141525;28;20047;-95
2022/01/24 06:10:53;;;;;;;55.85;29.05;;;;;;;-2.27;100.00;100040.38;5140188;28;20051;-94
2022/01/24 06:13:20;;;;;;;53.28;27.20;;;;;;;-2.34;100.00;100026.19;5141514;28;20042;-94
2022/01/24 06:15:50;;;;;;;49.17;26.42;;;;;;;-2.41;100.00;100016.28;5138518;28;20404;-95
2022/01/24 06:18:16;;;;;;;52.05;26.88;;;;;;;-2.41;100.00;100021.50;5138165;27;20050;-94
2022/01/24 06:20:43;;;;;;;59.10;29.58;;;;;;;-2.35;100.00;100031.31;5140086;28;20079;-95
2022/01/24 06:23:12;;;;;;;58.42;30.42;;;;;;;-2.20;100.00;100025.91;5138667;28;20055;-93
2022/01/24 06:25:38;;;;;;;56.83;29.00;;;;;;;-2.17;100.00;100037.34;5137911;27;20424;-94
2022/01/24 06:28:06;;;;;;;47.35;27.08;;;;;;;-2.27;100.00;100030.84;5136703;28;20421;-94
2022/01/24 06:30:35;;;;;;;60.88;27.75;;;;;;;-2.24;100.00;100034.41;5136962;28;20046;-95
2022/01/24 06:33:03;;;;;;;53.80;26.98;;;;;;;-2.26;100.00;100039.53;5137930;27;20040;-95
2022/01/24 06:35:29;;;;;;;54.17;27.65;;;;;;;-2.30;100.00;100043.75;5124714;27;20067;-94
2022/01/24 06:37:55;;;;;;;56.95;27.10;;;;;;;-2.33;100.00;100034.88;5123745;27;20045;-96
2022/01/24 06:40:22;;;;;;;48.92;24.98;;;;;;;-2.33;100.00;100040.97;5123746;28;20039;-94
2022/01/24 06:42:48;;;;;;;57.58;28.35;;;;;;;-2.30;100.00;100048.94;5125370;28;20071;-95
2022/01/24 06:45:14;;;;;;;49.20;27.15;;;;;;;-2.29;100.00;100052.44;5126796;28;20521;-95
2022/01/24 06:47:41;;;;;;;55.20;27.95;;;;;;;-2.21;100.00;100052.75;5127939;28;20043;-95
2022/01/24 06:50:12;;;;;;;57.13;28.23;;;;;;;-2.05;100.00;100067.38;5126725;28;20413;-95
2022/01/24 06:52:38;;;;;;;53.75;28.70;;;;;;;-2.14;100.00;100052.22;5125241;28;20048;-95
2022/01/24 06:55:05;;;;;;;54.58;29.55;;;;;;;-2.10;100.00;100052.44;5126841;28;20035;-95
2022/01/24 06:57:33;;;;;;;52.47;26.65;;;;;;;-2.07;100.00;100057.75;5128021;28;20040;-95
2022/01/24 06:59:59;;;;;;;49.55;26.90;;;;;;;-2.12;100.00;100045.38;5125957;28;20050;-95
2022/01/24 07:02:25;;;;;;;54.42;27.45;;;;;;;-1.89;100.00;100082.84;5125572;28;20040;-96
2022/01/24 07:04:54;;;;;;;50.72;25.75;;;;;;;-1.87;100.00;100084.69;5125567;28;20154;-94
2022/01/24 07:07:21;;;;;;;50.95;25.08;;;;;;;-1.98;100.00;100065.09;5125019;28;20075;-94
2022/01/24 07:09:47;;;;;;;53.25;27.35;;;;;;;-1.91;100.00;100067.16;5125345;28;20039;-95
2022/01/24 07:12:13;;;;;;;58.95;29.20;;;;;;;-1.83;100.00;100061.38;5124794;28;20472;-95
2022/01/24 07:14:43;;;;;;;60.75;29.98;;;;;;;-1.74;100.00;100069.59;5124441;28;20039;-95
2022/01/24 07:17:13;;;;;;;59.55;27.73;;;;;;;-1.51;100.00;100079.28;5123880;28;20122;-94
2022/01/24 07:19:42;;;;;;;53.70;29.95;;;;;;;-1.32;100.00;100057.47;5124378;28;20047;-94
2022/01/24 07:22:11;;;;;;;61.50;29.67;;;;;;;-1.25;100.00;100059.50;5125744;28;20048;-95
2022/01/24 07:24:41;;;;;;;42.10;20.75;;;;;;;-0.50;100.00;100081.56;5124887;28;20043;-96
2022/01/24 07:27:07;;;;;;;52.53;22.88;;;;;;;0.56;98.28;100060.09;5125730;28;20052;-94
2022/01/24 07:29:33;;;;;;;26.45;12.02;;;;;;;1.18;95.85;100060.38;5123452;28;20100;-94
2022/01/24 07:32:02;;;;;;;19.40;8.32;;;;;;;2.33;89.22;100051.44;5121883;28;20039;-95
2022/01/24 07:34:28;;;;;;;19.33;9.10;;;;;;;2.92;85.43;100065.19;5122968;28;20135;-93
2022/01/24 07:36:55;;;;;;;38.80;21.48;;;;;;;2.67;82.23;100072.47;5122555;28;20070;-93
2022/01/24 07:39:24;;;;;;;39.72;19.70;;;;;;;2.30;84.90;100056.59;5122269;28;20043;-93
2022/01/24 07:41:54;;;;;;;51.55;25.08;;;;;;;1.96;85.71;100077.56;5122994;28;20050;-94
2022/01/24 07:44:28;;;;;;;64.97;29.83;;;;;;;1.31;85.31;100073.88;5123033;28;20039;-95
2022/01/24 07:46:54;;;;;;;51.45;26.05;;;;;;;0.98;87.71;100088.56;5120456;28;20083;-95
2022/01/24 07:49:20;;;;;;;60.67;27.52;;;;;;;0.72;89.97;100084.22;5120996;28;20055;-95
2022/01/24 07:51:45;;;;;;;59.00;28.40;;;;;;;0.77;91.09;100107.06;5120920;28;20126;-95
2022/01/24 07:54:12;;;;;;;55.47;25.63;;;;;;;0.71;92.11;100075.44;5121472;28;20043;-95
2022/01/24 07:56:38;;;;;;;67.28;28.83;;;;;;;0.95;91.86;100079.72;5119482;28;20071;-93
2022/01/24 07:59:07;;;;;;;64.30;29.83;;;;;;;1.14;91.79;100081.19;5120523;28;20078;-94
2022/01/24 08:01:33;;;;;;;38.30;19.27;;;;;;;1.38;92.12;100095.06;5120421;28;20044;-95
2022/01/24 08:03:59;;;;;;;45.70;18.95;;;;;;;1.70;91.94;100102.16;5120522;28;20139;-94
2022/01/24 08:06:25;;;;;;;25.98;10.60;;;;;;;2.23;89.04;100108.94;5122791;28;20050;-94
2022/01/24 08:08:51;;;;;;;52.20;27.80;;;;;;;2.47;85.51;100089.44;5120393;27;20051;-95
2022/01/24 08:11:18;;;;;;;21.35;10.75;;;;;;;3.05;83.68;100090.03;5125275;28;20053;-94
2022/01/24 08:13:44;;;;;;;37.33;19.42;;;;;;;3.23;82.50;100081.69;5131353;28;20043;-94
2022/01/24 08:16:13;;;;;;;22.65;11.13;;;;;;;3.53;81.51;100088.53;5131515;28;20073;-94
2022/01/24 08:18:39;;;;;;;13.73;6.72;;;;;;;4.19;77.24;100072.38;5131144;28;20078;-94
2022/01/24 08:21:05;;;;;;;12.38;6.07;;;;;;;4.47;75.05;100072.91;5133002;28;20073;-95
2022/01/24 08:23:31;;;;;;;13.05;6.43;;;;;;;4.88;72.89;100070.09;5131910;28;20516;-93
2022/01/24 08:26:01;;;;;;;11.35;5.50;;;;;;;5.22;71.30;100084.72;5132074;28;20485;-94
2022/01/24 08:28:27;;;;;;;12.00;6.00;;;;;;;5.44;68.82;100067.44;5132779;28;20070;-95
2022/01/24 08:30:53;;;;;;;11.48;5.90;;;;;;;5.63;67.40;100054.53;5124841;28;20116;-95
2022/01/24 08:33:21;;;;;;;11.63;4.82;;;;;;;5.87;66.52;100083.88;5121438;28;20036;-94
2022/01/24 08:35:47;;;;;;;12.38;5.22;;;;;;;5.94;65.90;100071.66;5123017;28;20051;-95
2022/01/24 08:38:14;;;;;;;15.13;5.13;;;;;;;6.07;65.83;100063.06;5122852;28;20442;-95
2022/01/24 08:40:41;;;;;;;8.55;4.55;;;;;;;6.26;65.04;100064.13;5121113;28;20160;-95
2022/01/24 08:43:07;;;;;;;13.98;4.88;;;;;;;6.40;64.13;100050.19;5122061;28;20068;-95
2022/01/24 08:45:46;;;;;;;12.52;4.90;;;;;;;6.47;64.07;100042.34;5121563;27;20039;-94
2022/01/24 08:48:17;;;;;;;14.18;6.38;;;;;;;6.42;64.48;100043.16;5121614;28;20043;-96
2022/01/24 08:50:47;;;;;;;10.75;5.38;;;;;;;6.50;63.94;100054.69;5121272;28;20051;-95
2022/01/24 08:53:16;;;;;;;9.82;4.70;;;;;;;6.71;62.87;100084.00;5121203;28;20038;-96
2022/01/24 08:56:16;;;;;;;;;;;;;;;6.67;62.45;100082.19;5123005;28;20043;-94
2022/01/24 08:58:44;;;;;;;11.45;5.65;;;;;;;6.49;64.36;100050.31;5080388;28;19927;-96
2022/01/24 09:01:10;;;;;;;13.05;5.18;;;;;;;6.59;62.94;100065.34;5078498;28;20044;-95
2022/01/24 09:03:55;;;;;;;16.60;6.15;;;;;;;6.84;62.85;100092.03;5076876;28;20453;-94
2022/01/24 09:06:26;;;;;;;9.10;5.40;;;;;;;6.79;62.51;100058.50;5077109;28;20052;-95
2022/01/24 09:08:56;;;;;;;9.27;5.45;;;;;;;6.92;62.04;100077.16;5076663;28;20066;-95
2022/01/24 09:11:23;;;;;;;13.98;5.70;;;;;;;6.76;61.37;100062.88;5075868;28;20044;-94
2022/01/24 09:13:50;;;;;;;12.50;5.80;;;;;;;6.85;62.55;100062.06;5078006;28;20048;-94
2022/01/24 09:16:17;;;;;;;11.23;5.45;;;;;;;6.93;61.71;100057.75;5077148;28;20465;-95
2022/01/24 09:18:43;;;;;;;11.30;5.78;;;;;;;6.97;61.44;100060.44;5076937;28;20040;-95
2022/01/24 09:21:09;;;;;;;14.00;6.20;;;;;;;6.90;60.99;100081.53;5077292;28;20090;-95
2022/01/24 09:23:37;;;;;;;9.95;5.22;;;;;;;6.93;61.17;100065.69;5077525;28;20040;-95
2022/01/24 09:26:05;;;;;;;10.30;5.50;;;;;;;7.16;62.07;100069.41;5077162;28;20040;-94
2022/01/24 09:28:31;;;;;;;11.18;5.60;;;;;;;7.27;60.39;100068.59;5080140;28;20048;-95
2022/01/24 09:30:57;;;;;;;11.05;6.28;;;;;;;7.33;60.84;100064.22;5119300;28;20035;-94
2022/01/24 09:33:23;;;;;;;11.73;6.05;;;;;;;7.48;59.60;100103.16;5118947;28;20091;-95
2022/01/24 09:35:51;;;;;;;14.65;6.53;;;;;;;7.54;58.42;100097.00;5119010;27;20453;-96
2022/01/24 09:38:17;;;;;;;11.32;6.03;;;;;;;7.20;58.76;100073.84;5117992;28;20047;-94
2022/01/24 09:40:45;;;;;;;10.90;6.28;;;;;;;7.48;59.89;100095.22;5116359;28;20081;-93
2022/01/24 09:43:11;;;;;;;9.93;6.20;;;;;;;7.16;58.22;100094.97;5117662;28;20071;-94
2022/01/24 09:45:37;;;;;;;13.07;6.88;;;;;;;7.25;58.98;100108.25;5120127;28;20461;-94
2022/01/24 09:48:03;;;;;;;12.07;7.25;;;;;;;7.34;58.88;100078.34;5119744;28;20036;-94
2022/01/24 09:50:30;;;;;;;11.80;6.47;;;;;;;7.41;58.00;100072.22;5119370;28;20031;-96
2022/01/24 09:52:56;;;;;;;12.38;7.50;;;;;;;7.49;57.83;100104.91;5118656;28;20044;-92
2022/01/24 09:55:24;;;;;;;11.90;6.65;;;;;;;7.65;57.88;100097.94;5116529;28;20404;-96
2022/01/24 09:57:52;;;;;;;12.27;6.60;;;;;;;7.56;57.61;100090.84;5117424;28;20048;-96
2022/01/24 10:00:20;;;;;;;16.85;9.68;;;;;;;7.57;57.77;100097.91;5118186;28;20039;-94
2022/01/24 10:02:49;;;;;;;10.70;6.10;;;;;;;7.70;57.47;100083.00;5118609;28;20070;-94
2022/01/24 10:05:18;;;;;;;12.20;6.47;;;;;;;7.92;56.84;100097.22;5118466;28;20054;-95
2022/01/24 10:07:55;;;;;;;11.65;6.53;;;;;;;7.96;56.25;100092.84;5117250;28;20047;-95
2022/01/24 10:10:30;;;;;;;11.20;6.85;;;;;;;7.70;56.14;100097.97;5120657;28;20576;-96
2022/01/24 10:16:31;;;;;;;9.70;4.80;;;;;;;7.91;54.83;100091.91;5168867;27;20372;-93
2022/01/24 10:19:07;;;;;;;12.55;5.68;;;;;;;8.08;55.53;100084.94;5136334;27;20066;-95
2022/01/24 10:21:39;;;;;;;10.05;5.57;;;;;;;8.20;55.87;100102.66;5137781;27;20043;-94
2022/01/24 10:24:05;;;;;;;10.07;5.65;;;;;;;8.12;54.84;100086.72;5137105;27;20514;-93
2022/01/24 10:26:31;;;;;;;17.05;6.68;;;;;;;8.16;55.97;100082.31;5137899;27;20051;-93
2022/01/24 10:28:56;;;;;;;10.70;5.82;;;;;;;8.36;54.96;100100.94;5137254;27;20111;-94
2022/01/24 10:31:28;;;;;;;8.55;5.55;;;;;;;8.23;55.43;100079.69;5136405;27;20077;-94
2022/01/24 10:37:09;;;;;;;11.00;5.82;;;;;;;8.68;53.79;100086.91;5109249;27;20368;-94
2022/01/24 10:45:22;;;;;;;8.02;3.80;;;;;;;8.56;54.30;100080.69;5136975;27;20418;-95
2022/01/24 10:47:52;;;;;;;5.78;3.03;;;;;;;8.70;54.11;100115.22;5137188;28;20079;-93
2022/01/24 10:50:23;;;;;;;8.50;2.80;;;;;;;8.56;52.36;100079.81;5137151;28;20523;-95
2022/01/24 10:52:50;;;;;;;5.47;2.60;;;;;;;8.67;53.13;100088.66;5135755;28;20070;-93
2022/01/24 10:55:18;;;;;;;5.53;2.78;;;;;;;8.66;53.50;100099.28;5135045;28;20047;-94
2022/01/24 10:57:46;;;;;;;4.57;2.88;;;;;;;8.57;52.46;100103.69;5133799;28;20036;-94
2022/01/24 11:00:14;;;;;;;6.20;2.60;;;;;;;8.59;53.62;100101.91;5135006;28;20131;-94
2022/01/24 11:02:44;;;;;;;5.75;2.97;;;;;;;8.35;53.93;100072.63;5134802;28;20039;-94
2022/01/24 11:05:15;;;;;;;5.25;2.60;;;;;;;8.38;54.33;100070.03;5137799;28;20046;-94
2022/01/24 11:07:53;;;;;;;5.22;3.03;;;;;;;8.57;53.40;100090.44;5136478;27;20104;-94
2022/01/24 11:10:19;;;;;;;10.80;3.25;;;;;;;8.40;54.12;100108.94;5135446;28;20513;-93
2022/01/24 11:12:47;;;;;;;12.32;3.10;;;;;;;8.38;53.67;100101.81;5136356;28;20382;-94
2022/01/24 11:15:14;;;;;;;7.97;3.20;;;;;;;8.30;55.09;100069.97;5136512;28;20047;-93
2022/01/24 11:17:43;;;;;;;7.22;3.60;;;;;;;8.26;55.31;100052.31;5136738;28;20043;-94
2022/01/24 11:20:14;;;;;;;5.03;3.00;;;;;;;8.29;55.64;100062.06;5136918;28;20077;-93
2022/01/24 11:22:43;;;;;;;8.63;2.95;;;;;;;8.33;54.58;100067.34;5136766;28;20040;-92
2022/01/24 11:25:11;;;;;;;7.72;3.33;;;;;;;8.32;54.43;100056.75;5135419;28;20092;-94
2022/01/24 11:27:40;;;;;;;5.80;3.30;;;;;;;8.28;54.48;100052.31;5135288;28;20075;-94
2022/01/24 11:30:12;;;;;;;5.93;3.50;;;;;;;8.44;54.91;100091.28;5137344;28;20035;-95
2022/01/24 11:32:44;;;;;;;5.53;3.10;;;;;;;8.39;54.43;100058.53;5136941;28;20513;-92
2022/01/24 11:35:10;;;;;;;6.05;3.30;;;;;;;8.39;55.36;100070.03;5135500;28;20045;-94
2022/01/24 11:37:39;;;;;;;5.85;3.08;;;;;;;8.48;54.63;100101.00;5137888;28;20564;-93
2022/01/24 11:40:11;;;;;;;7.38;4.43;;;;;;;8.31;55.08;100044.38;5134590;28;20044;-93
2022/01/24 11:42:39;;;;;;;6.20;3.28;;;;;;;8.39;55.70;100069.13;5134775;28;20518;-93
2022/01/24 11:45:12;;;;;;;7.22;3.20;;;;;;;8.49;55.29;100068.31;5133890;28;20079;-93
2022/01/24 11:47:40;;;;;;;6.78;3.20;;;;;;;8.50;56.22;100087.75;5135397;27;20126;-91
2022/01/24 11:50:37;;;;;;;5.85;3.20;;;;;;;8.52;56.34;100073.63;5121543;28;20066;-94
2022/01/24 11:53:23;;;;;;;7.28;3.63;;;;;;;8.62;55.02;100058.63;5116342;28;20052;-93
2022/01/24 11:55:51;;;;;;;7.80;3.28;;;;;;;8.78;55.30;100065.72;5124914;28;20040;-96
2022/01/24 11:58:25;;;;;;;7.50;3.83;;;;;;;8.79;54.37;100070.13;5119807;28;20039;-94
2022/01/24 12:00:55;;;;;;;11.05;4.78;;;;;;;8.81;55.38;100080.75;5120097;28;20059;-93
2022/01/24 12:03:26;;;;;;;7.93;3.80;;;;;;;8.84;55.47;100070.13;5121065;28;20113;-92
2022/01/24 12:05:56;;;;;;;7.70;3.92;;;;;;;8.84;56.26;100078.97;5122254;28;20077;-95
2022/01/24 12:08:31;;;;;;;7.82;3.70;;;;;;;8.64;55.17;100040.94;5121920;28;20053;-94
2022/01/24 12:11:12;;;;;;;9.82;3.47;;;;;;;8.71;55.61;100048.00;5123712;28;20043;-92
2022/01/24 12:13:43;;;;;;;7.15;3.50;;;;;;;8.88;54.47;100057.75;5099347;28;20544;-94
2022/01/24 12:16:11;;;;;;;7.00;3.40;;;;;;;9.03;54.92;100048.03;5099177;28;20387;-91
2022/01/24 12:18:48;;;;;;;7.53;3.90;;;;;;;9.32;54.28;100054.19;5113954;28;20043;-93
2022/01/24 12:21:16;;;;;;;7.95;4.28;;;;;;;9.37;53.87;100052.44;5119434;28;20055;-91
2022/01/24 12:23:45;;;;;;;7.67;4.77;;;;;;;9.43;53.55;100063.00;5099713;28;20047;-95
2022/01/24 12:26:22;;;;;;;8.40;4.03;;;;;;;9.50;53.67;100043.56;5100992;28;20281;-94
2022/01/24 12:28:52;;;;;;;8.88;4.22;;;;;;;9.67;53.36;100056.75;5100432;28;20041;-93
2022/01/24 12:31:21;;;;;;;8.23;3.70;;;;;;;9.59;52.52;100046.19;5117455;28;20040;-94
2022/01/24 12:34:08;;;;;;;9.70;4.13;;;;;;;9.62;52.40;100048.81;5119473;28;20038;-93
2022/01/24 12:37:04;;;;;;;9.55;3.70;;;;;;;9.53;52.38;100045.31;5119380;28;20393;-93
2022/01/24 12:39:53;;;;;;;10.20;3.80;;;;;;;9.38;52.53;100025.88;5118858;28;20046;-93
2022/01/24 12:42:35;;;;;;;9.63;3.95;;;;;;;9.24;52.86;100043.59;5117393;28;20059;-92
2022/01/24 12:58:45;;;;;;;10.55;4.93;;;;;;;9.34;54.55;100036.50;5094954;27;20393;-92
2022/01/24 13:01:20;;;;;;;9.45;4.32;;;;;;;9.30;55.08;100051.53;5076456;28;20120;-94
2022/01/24 13:03:47;;;;;;;8.45;4.15;;;;;;;9.23;55.17;100055.97;5054569;28;20128;-95
2022/01/24 13:06:13;;;;;;;8.38;3.67;;;;;;;8.92;55.78;100044.50;5053366;28;20037;-94
2022/01/24 13:08:52;;;;;;;8.18;4.25;;;;;;;8.93;55.82;100056.84;5053909;28;20046;-93
2022/01/24 13:11:18;;;;;;;8.63;3.67;;;;;;;8.99;56.20;100067.47;5053262;28;20049;-92
2022/01/24 13:14:05;;;;;;;6.22;3.60;;;;;;;8.67;56.22;100055.97;5054063;28;20537;-93
2022/01/24 13:25:40;;;;;;;6.68;3.70;;;;;;;8.69;56.62;100052.41;5109716;27;20391;-94
2022/01/24 13:28:07;;;;;;;6.33;3.40;;;;;;;8.63;56.73;100033.84;5107735;28;20074;-93
2022/01/24 13:30:36;;;;;;;7.72;4.20;;;;;;;8.76;56.95;100048.91;5092673;28;20067;-94
2022/01/24 13:33:04;;;;;;;8.00;3.55;;;;;;;8.74;56.86;100063.03;5092297;28;20060;-94
2022/01/24 13:35:32;;;;;;;7.53;4.57;;;;;;;8.68;56.37;100039.19;5092513;28;20095;-92
2022/01/24 13:37:59;;;;;;;8.30;4.43;;;;;;;8.69;57.46;100038.28;5092963;28;20040;-92
2022/01/24 13:40:51;;;;;;;7.63;3.92;;;;;;;8.45;57.72;100052.41;5094064;28;20048;-93
2022/01/24 13:43:37;;;;;;;10.10;4.30;;;;;;;8.21;59.56;100046.13;5096497;28;20040;-94
2022/01/24 13:46:05;;;;;;;8.90;4.43;;;;;;;8.00;59.54;100046.91;5094861;28;20045;-94
2022/01/24 13:48:40;;;;;;;10.88;5.82;;;;;;;7.89;60.29;100057.47;5095725;28;20041;-94
2022/01/24 13:51:07;;;;;;;9.05;4.65;;;;;;;7.94;60.99;100076.94;5095012;28;20040;-92
2022/01/24 13:53:36;;;;;;;9.45;4.85;;;;;;;7.78;60.99;100059.19;5095526;28;20098;-93
2022/01/24 13:56:17;;;;;;;;;;;;;;;7.98;61.40;100084.00;5094217;28;20060;-94
2022/01/24 13:58:56;;;;;;;8.88;4.53;;;;;;;8.02;60.81;100072.56;5093179;28;19928;-93
2022/01/24 14:01:27;;;;;;;7.03;4.22;;;;;;;7.99;61.00;100069.00;5084813;28;20539;-94
2022/01/24 14:03:57;;;;;;;8.85;5.13;;;;;;;8.00;61.57;100054.84;5093630;28;20028;-93
2022/01/24 14:06:23;;;;;;;15.77;8.07;;;;;;;8.09;61.25;100065.53;5094407;28;20412;-95